createdAt,value
2022-08-22T00:02:19.943Z,11.30
2022-08-22T00:02:48.505Z,6.23
2022-08-22T00:03:06.741Z,9.70
2022-08-22T00:04:56.364Z,12.97
2022-08-22T00:07:37.109Z,10.73
2022-08-22T00:10:13.168Z,12.47
2022-08-22T00:13:00.156Z,12.97
2022-08-22T00:15:42.943Z,13.33
2022-08-22T00:18:17.296Z,12.07
2022-08-22T00:20:50.575Z,13.97
2022-08-22T00:23:28.931Z,13.57
2022-08-22T00:26:03.303Z,14.30
2022-08-22T00:28:35.546Z,14.30
2022-08-22T00:31:16.829Z,15.80
2022-08-22T00:33:49.915Z,14.50
2022-08-22T00:36:25.903Z,13.03
2022-08-22T00:39:03.270Z,14.20
2022-08-22T00:42:15.174Z,14.30
2022-08-22T00:45:39.342Z,13.90
2022-08-22T00:48:36.595Z,15.87
2022-08-22T00:51:36.971Z,16.33
2022-08-22T00:54:18.196Z,15.60
2022-08-22T00:57:12.982Z,14.10
2022-08-22T01:00:01.134Z,15.60
2022-08-22T01:02:40.835Z,15.77
2022-08-22T01:05:24.866Z,15.93
2022-08-22T01:08:09.531Z,15.90
2022-08-22T01:10:58.671Z,15.73
2022-08-22T01:13:55.691Z,14.87
2022-08-22T01:16:42.912Z,15.47
2022-08-22T01:19:40.577Z,14.17
2022-08-22T01:22:39.422Z,15.83
2022-08-22T01:25:37.440Z,14.70
2022-08-22T01:28:33.575Z,16.70
2022-08-22T01:31:40.591Z,15.90
2022-08-22T01:34:42.326Z,15.93
2022-08-22T01:37:43.419Z,16.57
2022-08-22T01:40:53.428Z,14.90
2022-08-22T01:43:51.504Z,14.80
2022-08-22T01:46:36.091Z,16.50
2022-08-22T01:49:17.638Z,16.97
2022-08-22T01:51:52.586Z,16.07
2022-08-22T01:54:34.903Z,16.27
2022-08-22T01:57:08.951Z,15.97
2022-08-22T01:59:42.622Z,15.27
2022-08-22T02:02:25.111Z,16.13
2022-08-22T02:05:02.217Z,15.10
2022-08-22T02:07:43.184Z,16.10
2022-08-22T02:10:19.671Z,17.97
2022-08-22T02:12:58.109Z,16.00
2022-08-22T02:15:45.162Z,17.40
2022-08-22T02:18:18.748Z,18.57
2022-08-22T02:21:00.806Z,16.53
2022-08-22T02:23:38.001Z,17.37
2022-08-22T02:26:17.005Z,16.83
2022-08-22T02:28:56.698Z,16.40
2022-08-22T02:31:38.210Z,17.30
2022-08-22T02:34:24.305Z,17.73
2022-08-22T02:36:58.012Z,17.40
2022-08-22T02:39:36.829Z,16.50
2022-08-22T02:42:18.224Z,17.60
2022-08-22T02:44:56.897Z,16.17
2022-08-22T02:47:32.461Z,16.93
2022-08-22T02:50:13.023Z,16.40
2022-08-22T02:52:54.173Z,16.77
2022-08-22T02:55:35.489Z,16.20
2022-08-22T02:58:08.798Z,16.97
2022-08-22T03:00:48.206Z,18.70
2022-08-22T03:03:22.449Z,18.03
2022-08-22T03:06:01.703Z,18.10
2022-08-22T03:08:33.353Z,17.60
2022-08-22T03:11:18.979Z,18.40
2022-08-22T03:13:56.972Z,18.40
2022-08-22T03:16:34.357Z,16.87
2022-08-22T03:19:08.407Z,18.37
2022-08-22T03:21:48.980Z,18.67
2022-08-22T03:24:25.455Z,20.33
2022-08-22T03:27:06.064Z,17.17
2022-08-22T03:29:38.273Z,17.30
2022-08-22T03:32:13.508Z,17.27
2022-08-22T03:34:56.805Z,18.77
2022-08-22T03:37:33.461Z,18.57
2022-08-22T03:40:05.191Z,17.90
2022-08-22T03:43:04.901Z,18.63
2022-08-22T03:46:12.122Z,20.47
2022-08-22T03:49:20.908Z,17.53
2022-08-22T03:52:06.995Z,19.33
2022-08-22T03:54:58.886Z,20.70
2022-08-22T03:57:53.141Z,19.90
2022-08-22T04:00:55.921Z,20.50
2022-08-22T04:04:01.604Z,19.93
2022-08-22T04:07:05.480Z,18.73
2022-08-22T04:09:58.443Z,18.07
2022-08-22T04:13:02.795Z,19.17
2022-08-22T04:16:12.257Z,18.87
2022-08-22T04:19:12.506Z,20.03
2022-08-22T04:21:58.834Z,20.80
2022-08-22T04:24:51.961Z,20.10
2022-08-22T04:27:26.928Z,19.23
2022-08-22T04:30:03.276Z,19.70
2022-08-22T04:32:37.323Z,19.53
2022-08-22T04:35:11.914Z,19.13
2022-08-22T04:37:50.919Z,18.63
2022-08-22T04:40:30.360Z,17.80
2022-08-22T04:43:03.523Z,15.67
2022-08-22T04:45:38.720Z,15.07
2022-08-22T04:48:13.093Z,16.27
2022-08-22T04:50:46.740Z,16.83
2022-08-22T04:53:40.043Z,16.47
2022-08-22T04:56:16.562Z,15.70
2022-08-22T04:58:48.673Z,16.60
2022-08-22T05:01:20.795Z,16.10
2022-08-22T05:03:56.031Z,17.50
2022-08-22T05:06:28.638Z,17.10
2022-08-22T05:09:01.671Z,17.90
2022-08-22T05:11:32.090Z,16.53
2022-08-22T05:14:07.083Z,16.43
2022-08-22T05:16:40.914Z,16.20
2022-08-22T05:19:16.139Z,16.53
2022-08-22T05:21:48.018Z,16.97
2022-08-22T05:24:23.033Z,16.13
2022-08-22T05:26:58.830Z,17.20
2022-08-22T05:29:32.013Z,16.93
2022-08-22T05:32:04.687Z,16.57
2022-08-22T05:34:38.110Z,19.13
2022-08-22T05:37:12.228Z,18.67
2022-08-22T05:39:46.913Z,17.50
2022-08-22T05:42:23.747Z,17.77
2022-08-22T05:44:52.173Z,16.83
2022-08-22T05:47:24.629Z,18.20
2022-08-22T05:50:01.858Z,19.20
2022-08-22T05:52:43.568Z,18.87
2022-08-22T05:55:22.560Z,17.77
2022-08-22T05:58:01.222Z,16.80
2022-08-22T06:00:33.858Z,12.50
2022-08-22T06:03:17.785Z,11.70
2022-08-22T06:05:52.426Z,12.20
2022-08-22T06:08:25.363Z,15.30
2022-08-22T06:10:56.297Z,13.00
2022-08-22T06:13:33.219Z,12.63
2022-08-22T06:16:09.450Z,10.10
2022-08-22T06:18:42.495Z,13.30
2022-08-22T06:21:14.498Z,11.97
2022-08-22T06:23:46.467Z,9.50
2022-08-22T06:26:20.645Z,9.93
2022-08-22T06:28:55.076Z,10.77
2022-08-22T06:31:27.268Z,11.40
2022-08-22T06:34:01.470Z,10.10
2022-08-22T06:36:34.008Z,10.00
2022-08-22T06:39:12.779Z,11.80
2022-08-22T06:41:47.490Z,11.67
2022-08-22T06:44:19.449Z,12.40
2022-08-22T06:46:49.542Z,12.57
2022-08-22T06:49:20.501Z,12.50
2022-08-22T06:51:50.405Z,12.50
2022-08-22T06:54:22.226Z,11.87
2022-08-22T06:56:53.642Z,11.90
2022-08-22T06:59:31.245Z,12.17
2022-08-22T07:02:05.148Z,11.60
2022-08-22T07:04:35.088Z,12.53
2022-08-22T07:07:03.640Z,9.83
2022-08-22T07:09:35.803Z,11.20
2022-08-22T07:12:18.378Z,11.67
2022-08-22T07:14:50.582Z,11.77
2022-08-22T07:17:22.119Z,11.43
2022-08-22T07:19:59.470Z,12.90
2022-08-22T07:22:31.973Z,13.07
2022-08-22T07:25:04.183Z,11.00
2022-08-22T07:27:45.317Z,12.60
2022-08-22T07:30:27.618Z,11.37
2022-08-22T07:33:26.159Z,12.37
2022-08-22T07:35:56.835Z,12.23
2022-08-22T07:38:35.485Z,13.17
2022-08-22T07:41:15.402Z,12.30
2022-08-22T07:43:47.710Z,14.07
2022-08-22T07:46:28.164Z,12.87
2022-08-22T07:49:09.147Z,12.23
2022-08-22T07:51:45.181Z,11.60
2022-08-22T07:54:17.598Z,12.80
2022-08-22T07:56:54.595Z,11.77
2022-08-22T07:59:24.408Z,11.70
2022-08-22T08:01:56.959Z,13.03
2022-08-22T08:04:30.470Z,13.10
2022-08-22T08:07:01.856Z,13.13
2022-08-22T08:09:33.996Z,11.77
2022-08-22T08:12:05.839Z,13.40
2022-08-22T08:14:37.861Z,12.67
2022-08-22T08:19:57.345Z,12.83
2022-08-22T08:22:28.583Z,12.63
2022-08-22T08:24:59.499Z,11.40
2022-08-22T08:27:50.478Z,11.20
2022-08-22T08:30:23.460Z,11.17
2022-08-22T08:32:57.481Z,11.60
2022-08-22T08:36:02.767Z,12.20
2022-08-22T08:38:39.053Z,12.57
2022-08-22T08:41:42.814Z,12.50
2022-08-22T08:44:25.999Z,10.90
2022-08-22T08:47:13.395Z,13.47
2022-08-22T08:50:02.663Z,11.77
2022-08-22T08:52:53.129Z,12.20
2022-08-22T08:55:37.285Z,12.40
2022-08-22T08:58:24.634Z,11.30
2022-08-22T09:00:59.725Z,12.20
2022-08-22T09:04:01.206Z,12.13
2022-08-22T09:07:01.185Z,12.03
2022-08-22T09:09:52.200Z,11.83
2022-08-22T09:12:56.122Z,11.77
2022-08-22T09:15:58.527Z,11.50
2022-08-22T09:18:49.829Z,10.83
2022-08-22T09:21:51.748Z,10.90
2022-08-22T09:24:44.391Z,13.33
2022-08-22T09:27:18.475Z,12.20
2022-08-22T09:29:54.830Z,11.43
2022-08-22T09:32:39.316Z,12.70
2022-08-22T09:35:22.370Z,11.53
2022-08-22T09:38:06.958Z,13.90
2022-08-22T09:40:42.525Z,13.07
2022-08-22T09:43:21.006Z,13.10
2022-08-22T09:46:02.102Z,12.37
2022-08-22T09:48:39.408Z,12.57
2022-08-22T09:51:33.198Z,11.37
2022-08-22T09:54:31.451Z,11.60
2022-08-22T09:57:13.880Z,11.23
2022-08-22T10:00:15.043Z,11.40
2022-08-22T10:02:56.287Z,11.20
2022-08-22T10:05:40.457Z,11.53
2022-08-22T10:08:20.260Z,11.47
2022-08-22T10:11:06.514Z,12.47
2022-08-22T10:13:47.241Z,10.47
2022-08-22T10:16:37.078Z,11.20
2022-08-22T10:19:17.010Z,12.07
2022-08-22T10:22:14.454Z,11.17
2022-08-22T10:24:50.416Z,11.33
2022-08-22T10:27:28.942Z,12.10
2022-08-22T10:30:06.934Z,10.90
2022-08-22T10:32:42.842Z,11.20
2022-08-22T10:35:21.342Z,12.53
2022-08-22T10:37:56.063Z,11.70
2022-08-22T10:40:30.421Z,11.50
2022-08-22T10:43:07.064Z,12.57
2022-08-22T10:45:41.350Z,12.37
2022-08-22T10:48:34.497Z,12.37
2022-08-22T10:51:33.591Z,11.20
2022-08-22T10:54:24.935Z,13.00
2022-08-22T10:57:06.638Z,11.47
2022-08-22T10:59:42.492Z,12.20
2022-08-22T11:03:02.297Z,11.00
2022-08-22T11:05:40.931Z,10.07
2022-08-22T11:08:43.260Z,11.33
2022-08-22T11:11:35.812Z,10.53
2022-08-22T11:14:29.072Z,12.53
2022-08-22T11:17:27.574Z,10.50
2022-08-22T11:20:07.249Z,11.60
2022-08-22T11:22:47.227Z,10.80
2022-08-22T11:25:41.218Z,10.93
2022-08-22T11:28:42.859Z,10.50
2022-08-22T11:31:22.678Z,9.53
2022-08-22T11:33:57.990Z,11.47
2022-08-22T11:36:35.887Z,10.90
2022-08-22T11:39:18.039Z,10.57
2022-08-22T11:41:57.639Z,10.80
2022-08-22T11:44:31.307Z,10.70
2022-08-22T11:47:09.963Z,11.20
2022-08-22T11:49:56.757Z,11.57
2022-08-22T11:52:34.556Z,10.63
2022-08-22T11:55:33.052Z,11.80
2022-08-22T11:58:28.757Z,10.87
2022-08-22T12:01:02.466Z,10.90
2022-08-22T12:03:53.993Z,11.93
2022-08-22T12:06:47.136Z,11.60
2022-08-22T12:09:29.964Z,12.97
2022-08-22T12:12:17.215Z,11.57
2022-08-22T12:14:55.414Z,12.80
2022-08-22T12:17:55.877Z,12.40
2022-08-22T12:20:52.465Z,12.10
2022-08-22T12:23:49.633Z,11.47
2022-08-22T12:26:29.855Z,12.77
2022-08-22T12:29:15.427Z,12.23
2022-08-22T12:32:34.441Z,12.40
2022-08-22T12:35:30.341Z,12.30
2022-08-22T12:38:28.920Z,13.07
2022-08-22T12:41:36.136Z,13.77
2022-08-22T12:44:22.383Z,11.87
2022-08-22T12:47:09.417Z,12.27
2022-08-22T12:49:52.395Z,12.40
2022-08-22T12:52:33.074Z,12.87
2022-08-22T12:55:24.829Z,13.23
2022-08-22T12:58:06.993Z,13.90
2022-08-22T13:00:40.241Z,14.10
2022-08-22T13:03:14.441Z,12.83
2022-08-22T13:05:52.395Z,12.67
2022-08-22T13:08:30.827Z,14.80
2022-08-22T13:11:03.082Z,13.00
2022-08-22T13:13:40.701Z,14.13
2022-08-22T13:16:12.326Z,17.50
2022-08-22T13:18:46.801Z,16.17
2022-08-22T13:21:31.593Z,15.00
2022-08-22T13:24:10.304Z,13.30
2022-08-22T13:26:49.327Z,13.47
2022-08-22T13:29:26.721Z,13.63
2022-08-22T13:32:00.413Z,14.13
2022-08-22T13:34:39.799Z,13.73
2022-08-22T13:37:15.233Z,12.90
2022-08-22T13:39:49.209Z,10.60
2022-08-22T13:42:29.782Z,10.80
2022-08-22T13:45:04.873Z,9.53
2022-08-22T13:47:39.824Z,8.07
2022-08-22T13:50:14.576Z,7.20
2022-08-22T13:52:52.485Z,7.83
2022-08-22T13:55:32.314Z,7.80
2022-08-22T13:58:11.159Z,9.77
2022-08-22T14:01:07.374Z,9.70
2022-08-22T14:03:42.998Z,12.77
2022-08-22T14:06:37.171Z,15.53
2022-08-22T14:09:32.752Z,14.07
2022-08-22T14:12:13.941Z,13.33
2022-08-22T14:14:46.607Z,15.30
2022-08-22T14:17:18.256Z,17.47
2022-08-22T14:19:59.616Z,18.10
2022-08-22T14:22:34.844Z,19.67
2022-08-22T14:25:08.625Z,22.20
2022-08-22T14:27:40.037Z,20.30
2022-08-22T14:30:17.051Z,22.03
2022-08-22T14:32:51.388Z,17.27
2022-08-22T14:35:29.222Z,19.60
2022-08-22T14:38:21.320Z,18.80
2022-08-22T14:40:58.754Z,18.90
2022-08-22T14:43:47.163Z,17.70
2022-08-22T14:46:26.611Z,18.70
2022-08-22T14:49:24.964Z,22.30
2022-08-22T14:52:00.295Z,23.33
2022-08-22T14:54:29.380Z,21.23
2022-08-22T14:57:00.198Z,22.00
2022-08-22T14:59:40.266Z,20.90
2022-08-22T15:02:15.342Z,19.97
2022-08-22T15:04:46.989Z,20.63
2022-08-22T15:07:23.781Z,22.30
2022-08-22T15:09:56.329Z,19.57
2022-08-22T15:12:29.209Z,21.13
2022-08-22T15:15:00.322Z,21.73
2022-08-22T15:17:44.424Z,23.93
2022-08-22T15:20:28.601Z,22.20
2022-08-22T15:22:59.878Z,21.57
2022-08-22T15:25:33.342Z,22.63
2022-08-22T15:28:14.395Z,20.90
2022-08-22T15:30:54.044Z,20.77
2022-08-22T15:33:27.144Z,19.07
2022-08-22T15:36:11.484Z,20.63
2022-08-22T15:38:48.053Z,20.60
2022-08-22T15:41:42.178Z,20.20
2022-08-22T15:44:17.191Z,19.60
2022-08-22T15:47:12.080Z,18.10
2022-08-22T15:49:58.615Z,19.50
2022-08-22T15:52:29.915Z,18.47
2022-08-22T15:55:23.216Z,19.67
2022-08-22T15:58:02.593Z,18.60
2022-08-22T16:00:35.435Z,19.47
2022-08-22T16:03:08.605Z,18.30
2022-08-22T16:05:54.525Z,17.40
2022-08-22T16:08:28.499Z,20.73
2022-08-22T16:11:27.547Z,17.90
2022-08-22T16:14:21.901Z,18.73
2022-08-22T16:16:57.219Z,18.93
2022-08-22T16:19:27.249Z,19.70
2022-08-22T16:22:14.248Z,18.40
2022-08-22T16:25:01.134Z,18.90
2022-08-22T16:27:30.575Z,19.87
2022-08-22T16:30:16.981Z,18.47
2022-08-22T16:32:55.251Z,19.80
2022-08-22T16:36:02.775Z,19.70
2022-08-22T16:38:41.709Z,21.00
2022-08-22T16:41:26.759Z,18.10
2022-08-22T16:44:17.659Z,18.50
2022-08-22T16:46:47.519Z,19.83
2022-08-22T16:49:26.931Z,24.37
2022-08-22T16:52:32.264Z,25.53
2022-08-22T16:55:05.866Z,25.30
2022-08-22T16:57:59.276Z,23.03
2022-08-22T17:00:41.473Z,26.80
2022-08-22T17:03:18.219Z,27.27
2022-08-22T17:05:56.690Z,28.10
2022-08-22T17:08:47.552Z,29.87
2022-08-22T17:11:31.234Z,29.23
2022-08-22T17:14:14.236Z,25.40
2022-08-22T17:17:01.444Z,23.53
2022-08-22T17:19:43.404Z,24.00
2022-08-22T17:22:29.348Z,23.20
2022-08-22T17:25:17.162Z,26.60
2022-08-22T17:27:53.984Z,25.93
2022-08-22T17:30:28.417Z,27.73
2022-08-22T17:33:11.602Z,27.60
2022-08-22T17:36:03.159Z,27.77
2022-08-22T17:38:49.994Z,24.23
2022-08-22T17:41:30.387Z,24.37
2022-08-22T17:44:12.229Z,24.57
2022-08-22T17:46:48.178Z,24.63
2022-08-22T17:49:23.899Z,22.57
2022-08-22T17:51:58.271Z,22.40
2022-08-22T17:54:34.235Z,23.17
2022-08-22T17:57:08.925Z,24.50
2022-08-22T17:59:48.431Z,22.70
2022-08-22T18:02:20.667Z,23.07
2022-08-22T18:16:32.464Z,23.10
2022-08-22T18:19:06.454Z,22.63
2022-08-22T18:21:43.123Z,24.10
2022-08-22T18:24:22.879Z,24.87
2022-08-22T18:26:59.446Z,24.90
2022-08-22T18:29:34.492Z,24.03
2022-08-22T18:32:12.056Z,26.17
2022-08-22T18:34:47.000Z,23.40
2022-08-22T18:37:24.087Z,24.80
2022-08-22T18:39:59.989Z,25.40
2022-08-22T18:42:34.779Z,26.37
2022-08-22T18:45:03.033Z,25.20
2022-08-22T18:47:35.767Z,21.60
2022-08-22T18:50:29.291Z,24.07
2022-08-22T18:52:58.045Z,22.67
2022-08-22T18:55:46.459Z,22.80
2022-08-22T18:58:55.869Z,21.00
2022-08-22T19:01:46.846Z,23.73
2022-08-22T19:04:45.685Z,24.00
2022-08-22T19:07:26.949Z,23.07
2022-08-22T19:10:20.651Z,22.57
2022-08-22T19:13:03.534Z,24.33
2022-08-22T19:15:41.915Z,26.30
2022-08-22T19:18:37.339Z,25.93
2022-08-22T19:21:35.404Z,25.90
2022-08-22T19:24:08.757Z,24.50
2022-08-22T19:26:40.878Z,26.90
2022-08-22T19:29:42.138Z,24.83
2022-08-22T19:32:13.691Z,27.83
2022-08-22T19:34:47.059Z,26.13
2022-08-22T19:37:32.321Z,21.53
2022-08-22T19:40:07.949Z,22.33
2022-08-22T19:42:39.917Z,21.20
2022-08-22T19:45:20.139Z,20.53
2022-08-22T19:47:58.301Z,21.53
2022-08-22T19:50:31.626Z,21.80
2022-08-22T19:53:32.509Z,19.97
2022-08-22T19:56:19.655Z,19.90
2022-08-22T19:58:57.898Z,20.97
2022-08-22T20:01:39.474Z,19.90
2022-08-22T20:04:20.692Z,21.20
2022-08-22T20:07:01.630Z,19.63
2022-08-22T20:09:54.708Z,20.07
2022-08-22T20:12:36.946Z,20.00
2022-08-22T20:15:17.942Z,20.23
2022-08-22T20:18:11.557Z,19.90
2022-08-22T20:20:56.589Z,21.47
2022-08-22T20:23:29.426Z,20.07
2022-08-22T20:25:58.152Z,21.17
2022-08-22T20:28:37.362Z,21.20
2022-08-22T20:31:11.640Z,21.70
2022-08-22T20:33:42.740Z,22.00
2022-08-22T20:36:28.292Z,20.90
2022-08-22T20:39:01.117Z,20.70
2022-08-22T20:41:35.589Z,20.67
2022-08-22T20:44:12.556Z,19.30
2022-08-22T20:46:55.108Z,21.10
2022-08-22T20:49:28.379Z,22.40
2022-08-22T20:51:59.048Z,19.23
2022-08-22T20:54:29.644Z,20.37
2022-08-22T20:57:00.174Z,21.07
2022-08-22T20:59:36.013Z,21.23
2022-08-22T21:02:10.433Z,20.07
2022-08-22T21:04:45.520Z,20.27
2022-08-22T21:07:20.882Z,20.00
2022-08-22T21:10:12.897Z,20.00
2022-08-22T21:12:41.067Z,20.53
2022-08-22T21:15:11.203Z,21.90
2022-08-22T21:17:39.661Z,21.43
2022-08-22T21:20:21.192Z,23.90
2022-08-22T21:22:49.799Z,27.63
2022-08-22T21:25:18.224Z,27.97
2022-08-22T21:27:48.899Z,26.07
2022-08-22T21:30:26.161Z,27.00
2022-08-22T21:32:56.299Z,26.13
2022-08-22T21:35:29.004Z,26.27
2022-08-22T21:37:57.933Z,25.50
2022-08-22T21:40:33.519Z,26.33
2022-08-22T21:43:08.500Z,23.20
2022-08-22T21:45:44.708Z,24.03
2022-08-22T21:48:34.099Z,25.03
2022-08-22T21:51:40.067Z,25.03
2022-08-22T21:54:39.651Z,22.40
2022-08-22T21:57:21.395Z,24.47
2022-08-22T21:59:59.744Z,24.43
2022-08-22T22:02:36.888Z,23.40
2022-08-22T22:05:11.274Z,23.17
2022-08-22T22:07:40.743Z,20.07
2022-08-22T22:10:11.372Z,22.07
2022-08-22T22:12:41.485Z,22.17
2022-08-22T22:15:12.603Z,23.30
2022-08-22T22:17:42.184Z,22.07
2022-08-22T22:20:11.060Z,22.50
2022-08-22T22:22:46.596Z,22.40
2022-08-22T22:25:40.381Z,21.47
2022-08-22T22:28:07.547Z,22.70
2022-08-22T22:30:36.598Z,21.00
2022-08-22T22:33:06.463Z,20.63
2022-08-22T22:35:35.711Z,21.53
2022-08-22T22:38:03.842Z,21.30
2022-08-22T22:40:32.134Z,20.30
2022-08-22T22:43:00.277Z,19.63
2022-08-22T22:45:28.457Z,21.53
2022-08-22T22:47:56.800Z,18.30
2022-08-22T22:50:26.588Z,20.70
2022-08-22T22:52:55.009Z,20.37
2022-08-22T22:55:24.021Z,21.47
2022-08-22T22:57:58.981Z,19.57
2022-08-22T23:00:31.130Z,19.90
2022-08-22T23:03:00.575Z,20.77
2022-08-22T23:05:31.450Z,20.30
2022-08-22T23:08:00.360Z,20.87
2022-08-22T23:10:30.047Z,20.60
2022-08-22T23:12:58.523Z,20.90
2022-08-22T23:15:26.655Z,21.43
2022-08-22T23:17:55.063Z,20.13
2022-08-22T23:20:23.701Z,21.93
2022-08-22T23:22:53.226Z,21.10
2022-08-22T23:25:21.505Z,20.20
2022-08-22T23:27:52.262Z,19.60
2022-08-22T23:30:21.606Z,20.53
2022-08-22T23:32:49.882Z,20.50
2022-08-22T23:35:18.310Z,18.67
2022-08-22T23:37:46.431Z,18.80
2022-08-22T23:40:16.033Z,22.30
2022-08-22T23:42:44.283Z,20.60
2022-08-22T23:45:12.531Z,19.90
2022-08-22T23:47:40.661Z,20.73
2022-08-22T23:50:09.194Z,22.33
2022-08-22T23:52:37.287Z,20.30
2022-08-22T23:55:05.845Z,22.10
2022-08-22T23:57:35.363Z,23.23
